Time;durP1;ratioP1;P1;durP2;ratioP2;P2;SDS_P1;SDS_P2;PMS_P1;PMS_P2;Temp;Humidity;BMP_temperature;BMP_pressure;BME280_temperature;BME280_humidity;BME280_pressure;Samples;Min_cycle;Max_cycle;Signal;HPM_P1;HPM_P2
2023/07/14 00:00:58;;;;;;;4.18;1.88;;;;;;;;;;5023319;28;20076;-77
2023/07/14 00:03:24;;;;;;;4.97;1.90;;;;;;;;;;5025439;28;20350;-80
2023/07/14 00:05:52;;;;;;;3.20;1.40;;;;;;;;;;5025713;28;20033;-78
2023/07/14 00:08:21;;;;;;;10.52;2.28;;;;;;;;;;5027338;28;20331;-80
2023/07/14 00:10:46;;;;;;;5.10;2.17;;;;;;;;;;5019628;28;20044;-78
2023/07/14 00:13:14;;;;;;;4.20;1.65;;;;;;;;;;5026525;28;20029;-80
2023/07/14 00:15:40;;;;;;;7.35;1.73;;;;;;;;;;5017654;28;20041;-79
2023/07/14 00:18:12;;;;;;;5.50;2.10;;;;;;;;;;5027314;28;20070;-79
2023/07/14 00:20:39;;;;;;;7.57;1.98;;;;;;;;;;5040130;28;20057;-78
2023/07/14 00:23:11;;;;;;;5.88;1.95;;;;;;;;;;5032728;28;20730;-79
2023/07/14 00:25:38;;;;;;;4.85;1.77;;;;;;;;;;5039072;28;21630;-79
2023/07/14 00:28:05;;;;;;;5.18;1.80;;;;;;;;;;5026951;28;20087;-81
2023/07/14 00:30:34;;;;;;;7.43;2.20;;;;;;;;;;5020954;28;20029;-80
2023/07/14 00:33:02;;;;;;;11.68;2.15;;;;;;;;;;5040191;28;20040;-76
2023/07/14 00:35:31;;;;;;;5.30;1.80;;;;;;;;;;5015136;28;20030;-79
2023/07/14 00:37:58;;;;;;;6.07;2.08;;;;;;;;;;5039258;28;20033;-78
2023/07/14 00:40:44;;;;;;;5.38;2.00;;;;;;;;;;5018275;28;20029;-78
2023/07/14 00:43:14;;;;;;;5.00;1.85;;;;;;;;;;5017175;28;20036;-77
2023/07/14 00:45:40;;;;;;;6.47;1.60;;;;;;;;;;5022092;28;20061;-78
2023/07/14 00:48:07;;;;;;;7.28;2.20;;;;;;;;;;5023499;28;20033;-78
2023/07/14 00:50:33;;;;;;;16.38;2.10;;;;;;;;;;5039155;28;20112;-80
2023/07/14 00:53:02;;;;;;;6.65;2.22;;;;;;;;;;5027971;28;20091;-79
2023/07/14 00:55:30;;;;;;;5.75;2.72;;;;;;;;;;5024752;28;20469;-77
2023/07/14 00:57:56;;;;;;;4.65;1.95;;;;;;;;;;5024417;28;20046;-79
2023/07/14 01:00:26;;;;;;;5.65;2.42;;;;;;;;;;5038160;28;20048;-78
2023/07/14 01:02:52;;;;;;;4.38;2.03;;;;;;;;;;5040258;28;20034;-79
2023/07/14 01:05:19;;;;;;;4.82;1.95;;;;;;;;;;5024794;28;20038;-80
2023/07/14 01:07:48;;;;;;;6.10;1.92;;;;;;;;;;5026801;28;20036;-79
2023/07/14 01:10:17;;;;;;;8.93;2.25;;;;;;;;;;5027990;28;20029;-78
2023/07/14 01:12:47;;;;;;;6.53;2.40;;;;;;;;;;5027707;28;20057;-79
2023/07/14 01:15:18;;;;;;;3.92;2.33;;;;;;;;;;5044700;28;20477;-77
2023/07/14 01:17:48;;;;;;;6.72;2.45;;;;;;;;;;5027719;28;20037;-76
2023/07/14 01:20:14;;;;;;;4.47;1.88;;;;;;;;;;5027396;28;20034;-78
2023/07/14 01:22:40;;;;;;;5.63;1.88;;;;;;;;;;5027556;28;20044;-78
2023/07/14 01:25:19;;;;;;;5.57;2.20;;;;;;;;;;5027557;28;20037;-80
2023/07/14 01:27:46;;;;;;;3.25;1.77;;;;;;;;;;5025000;28;20041;-77
2023/07/14 01:30:12;;;;;;;7.72;2.33;;;;;;;;;;5028505;28;20033;-77
2023/07/14 01:32:40;;;;;;;5.03;1.90;;;;;;;;;;5043315;28;20438;-79
2023/07/14 01:35:07;;;;;;;4.47;1.90;;;;;;;;;;5028571;28;20026;-78
2023/07/14 01:37:39;;;;;;;7.50;2.15;;;;;;;;;;5021110;28;20059;-80
2023/07/14 01:40:06;;;;;;;7.87;2.13;;;;;;;;;;5028265;28;20037;-80
2023/07/14 01:42:33;;;;;;;3.13;1.83;;;;;;;;;;5029854;28;20040;-79
2023/07/14 01:44:59;;;;;;;7.90;1.77;;;;;;;;;;5031491;28;20037;-79
2023/07/14 01:47:28;;;;;;;4.28;1.48;;;;;;;;;;5030191;28;20045;-80
2023/07/14 01:49:54;;;;;;;4.70;1.50;;;;;;;;;;5021406;28;20047;-78
2023/07/14 01:52:24;;;;;;;4.50;1.67;;;;;;;;;;5030576;28;20224;-77
2023/07/14 01:55:10;;;;;;;4.13;1.90;;;;;;;;;;5031249;28;20029;-79
2023/07/14 01:57:37;;;;;;;3.78;1.67;;;;;;;;;;5030551;28;20047;-78
2023/07/14 02:00:10;;;;;;;6.32;1.67;;;;;;;;;;5023712;28;20053;-79
2023/07/14 02:02:39;;;;;;;4.35;1.83;;;;;;;;;;5026413;28;20044;-79
2023/07/14 02:05:06;;;;;;;4.40;1.55;;;;;;;;;;5028181;28;20025;-79
2023/07/14 02:07:33;;;;;;;4.18;1.65;;;;;;;;;;5026064;28;20037;-79
2023/07/14 02:10:01;;;;;;;3.67;1.70;;;;;;;;;;5035941;28;20060;-79
2023/07/14 02:12:31;;;;;;;3.75;1.48;;;;;;;;;;5027833;28;20489;-80
2023/07/14 02:15:01;;;;;;;6.50;2.10;;;;;;;;;;5027191;28;20667;-77
2023/07/14 02:17:30;;;;;;;6.22;2.10;;;;;;;;;;5025259;28;20033;-80
2023/07/14 02:19:57;;;;;;;7.10;2.30;;;;;;;;;;5024950;28;20033;-80
2023/07/14 02:22:26;;;;;;;4.53;1.40;;;;;;;;;;5027086;28;20115;-79
2023/07/14 02:24:53;;;;;;;4.22;1.98;;;;;;;;;;5019144;28;20034;-78
2023/07/14 02:27:19;;;;;;;2.83;1.67;;;;;;;;;;5019050;28;20044;-76
2023/07/14 02:29:48;;;;;;;4.40;2.08;;;;;;;;;;5031685;28;20465;-79
2023/07/14 02:32:14;;;;;;;5.68;2.58;;;;;;;;;;5018934;28;20030;-79
2023/07/14 02:34:46;;;;;;;5.05;2.20;;;;;;;;;;5022357;28;20138;-79
2023/07/14 02:37:12;;;;;;;;;;;;;;;;;;5025914;28;20026;-79
2023/07/14 02:39:40;;;;;;;5.28;1.75;;;;;;;;;;5040766;28;20368;-79
2023/07/14 02:42:06;;;;;;;5.65;2.13;;;;;;;;;;5021444;28;20060;-78
2023/07/14 02:44:36;;;;;;;3.95;1.85;;;;;;;;;;5028425;28;20373;-79
2023/07/14 02:47:07;;;;;;;3.72;1.70;;;;;;;;;;5026226;28;20144;-79
2023/07/14 02:49:36;;;;;;;6.33;1.83;;;;;;;;;;5025592;28;20029;-79
2023/07/14 02:52:02;;;;;;;3.17;1.73;;;;;;;;;;5026924;28;20021;-79
2023/07/14 02:54:30;;;;;;;7.15;1.90;;;;;;;;;;5025133;28;20112;-79
2023/07/14 02:56:56;;;;;;;9.80;2.22;;;;;;;;;;5025739;28;20037;-79
2023/07/14 02:59:25;;;;;;;4.47;1.92;;;;;;;;;;5028019;28;20115;-79
2023/07/14 03:01:50;;;;;;;8.60;1.77;;;;;;;;;;5025925;28;20070;-78
2023/07/14 03:04:16;;;;;;;4.07;1.80;;;;;;;;;;5029395;28;20033;-79
2023/07/14 03:06:42;;;;;;;5.22;2.00;;;;;;;;;;5026270;28;20029;-79
2023/07/14 03:09:08;;;;;;;6.10;1.48;;;;;;;;;;5040559;28;20041;-79
2023/07/14 03:11:34;;;;;;;6.30;2.47;;;;;;;;;;5024977;28;20059;-79
2023/07/14 03:14:02;;;;;;;6.13;2.63;;;;;;;;;;5019860;28;20041;-78
2023/07/14 03:16:29;;;;;;;3.80;1.83;;;;;;;;;;5046967;28;20048;-76
2023/07/14 03:18:56;;;;;;;4.63;1.77;;;;;;;;;;5027648;28;20026;-78
2023/07/14 03:21:25;;;;;;;8.25;2.78;;;;;;;;;;5027872;28;20026;-78
2023/07/14 03:23:51;;;;;;;3.00;2.10;;;;;;;;;;5021673;28;20030;-79
2023/07/14 03:26:19;;;;;;;4.97;1.70;;;;;;;;;;5029049;28;20104;-76
2023/07/14 03:28:45;;;;;;;5.78;2.13;;;;;;;;;;5024631;28;20682;-79
2023/07/14 03:31:11;;;;;;;6.22;1.90;;;;;;;;;;5027151;28;20045;-77
2023/07/14 03:33:38;;;;;;;12.10;2.65;;;;;;;;;;5027048;28;20036;-77
2023/07/14 03:36:05;;;;;;;6.88;2.50;;;;;;;;;;5017840;28;20119;-79
2023/07/14 03:38:38;;;;;;;7.57;2.10;;;;;;;;;;5040697;28;20077;-77
2023/07/14 03:41:06;;;;;;;9.07;2.20;;;;;;;;;;5023781;28;20121;-79
2023/07/14 03:43:34;;;;;;;6.72;2.13;;;;;;;;;;5026868;28;20033;-78
2023/07/14 03:46:00;;;;;;;7.60;2.63;;;;;;;;;;5028348;28;20025;-79
2023/07/14 03:48:26;;;;;;;4.93;2.15;;;;;;;;;;5027446;28;20083;-77
2023/07/14 03:50:52;;;;;;;5.78;2.00;;;;;;;;;;5026945;28;21002;-77
2023/07/14 03:53:18;;;;;;;5.35;2.13;;;;;;;;;;5028832;28;20065;-79
2023/07/14 03:55:47;;;;;;;6.00;2.15;;;;;;;;;;5026376;28;20065;-78
2023/07/14 03:58:13;;;;;;;5.45;2.00;;;;;;;;;;5024276;28;20078;-78
2023/07/14 04:00:39;;;;;;;6.00;2.33;;;;;;;;;;5026140;28;20117;-78
2023/07/14 04:03:07;;;;;;;4.97;2.10;;;;;;;;;;5045519;28;20557;-79
2023/07/14 04:05:33;;;;;;;5.18;1.90;;;;;;;;;;5023660;28;20090;-78
2023/07/14 04:07:59;;;;;;;4.60;2.30;;;;;;;;;;5015872;28;20057;-78
2023/07/14 04:10:28;;;;;;;7.78;1.95;;;;;;;;;;5023081;28;20029;-77
2023/07/14 04:13:00;;;;;;;7.18;2.40;;;;;;;;;;5024398;28;20120;-78
2023/07/14 04:15:26;;;;;;;;;;;;;;;;;;5023518;28;20056;-78
2023/07/14 04:17:52;;;;;;;8.90;1.90;;;;;;;;;;5022828;28;19917;-79
2023/07/14 04:20:21;;;;;;;5.18;2.33;;;;;;;;;;5017343;28;20037;-77
2023/07/14 04:22:47;;;;;;;5.60;2.22;;;;;;;;;;5039148;28;20064;-79
2023/07/14 04:25:12;;;;;;;7.10;2.42;;;;;;;;;;5026396;28;20454;-79
2023/07/14 04:27:41;;;;;;;4.72;2.20;;;;;;;;;;5023746;28;20041;-80
2023/07/14 04:30:10;;;;;;;6.25;2.10;;;;;;;;;;5023473;28;20461;-77
2023/07/14 04:32:38;;;;;;;4.50;2.45;;;;;;;;;;5017700;28;20059;-79
2023/07/14 04:35:04;;;;;;;5.30;2.15;;;;;;;;;;5023389;28;20030;-78
2023/07/14 04:37:30;;;;;;;5.22;2.13;;;;;;;;;;5015076;28;20041;-77
2023/07/14 04:39:59;;;;;;;6.78;2.17;;;;;;;;;;5026989;28;20039;-79
2023/07/14 04:42:25;;;;;;;6.10;2.70;;;;;;;;;;5022167;28;20033;-77
2023/07/14 04:44:51;;;;;;;6.22;2.33;;;;;;;;;;5038094;28;20033;-80
2023/07/14 04:47:17;;;;;;;6.00;2.58;;;;;;;;;;5022989;28;20044;-78
2023/07/14 04:49:43;;;;;;;4.90;2.25;;;;;;;;;;5024736;28;20089;-78
2023/07/14 04:52:09;;;;;;;6.68;2.25;;;;;;;;;;5024026;28;20040;-79
2023/07/14 04:54:35;;;;;;;5.68;1.80;;;;;;;;;;5024884;28;20075;-78
2023/07/14 04:57:01;;;;;;;6.93;2.20;;;;;;;;;;5031486;28;20048;-77
2023/07/14 04:59:27;;;;;;;3.20;1.73;;;;;;;;;;5026021;28;20039;-80
2023/07/14 05:01:54;;;;;;;5.80;2.28;;;;;;;;;;5019216;28;20021;-78
2023/07/14 05:04:20;;;;;;;6.32;2.47;;;;;;;;;;5016795;28;20030;-78
2023/07/14 05:06:46;;;;;;;3.85;2.03;;;;;;;;;;5033123;28;20041;-78
2023/07/14 05:09:12;;;;;;;8.65;2.13;;;;;;;;;;5068178;22;20072;-76
2023/07/14 05:11:39;;;;;;;6.25;2.15;;;;;;;;;;5035230;28;20044;-80
2023/07/14 05:14:07;;;;;;;6.53;2.47;;;;;;;;;;5034803;28;20140;-79
2023/07/14 05:16:33;;;;;;;6.72;2.08;;;;;;;;;;5035696;28;20041;-79
2023/07/14 05:18:59;;;;;;;7.72;2.17;;;;;;;;;;5036003;28;20041;-79
2023/07/14 05:21:25;;;;;;;5.65;2.22;;;;;;;;;;5036139;28;20025;-77
2023/07/14 05:23:51;;;;;;;7.35;2.40;;;;;;;;;;5034830;28;20032;-77
2023/07/14 05:26:17;;;;;;;5.03;2.15;;;;;;;;;;5032819;28;20028;-80
2023/07/14 05:28:43;;;;;;;4.22;2.55;;;;;;;;;;5033719;28;20040;-78
2023/07/14 05:31:12;;;;;;;5.97;2.30;;;;;;;;;;5031661;28;20033;-79
2023/07/14 05:33:40;;;;;;;4.65;2.38;;;;;;;;;;5042651;28;20476;-79
2023/07/14 05:36:06;;;;;;;3.47;2.00;;;;;;;;;;5039700;28;20033;-79
2023/07/14 05:38:32;;;;;;;4.65;1.92;;;;;;;;;;5034533;28;20033;-79
2023/07/14 05:41:03;;;;;;;8.90;2.30;;;;;;;;;;5033459;28;20044;-78
2023/07/14 05:43:30;;;;;;;5.38;2.65;;;;;;;;;;5034865;28;20037;-79
2023/07/14 05:45:56;;;;;;;4.80;2.00;;;;;;;;;;5031599;28;20029;-77
2023/07/14 05:48:22;;;;;;;7.80;2.20;;;;;;;;;;5035333;28;20034;-79
2023/07/14 05:50:48;;;;;;;7.78;2.78;;;;;;;;;;5036205;28;20104;-79
2023/07/14 05:53:17;;;;;;;8.88;3.00;;;;;;;;;;5045398;28;20083;-78
2023/07/14 05:55:44;;;;;;;6.32;3.03;;;;;;;;;;5041877;28;20037;-79
2023/07/14 05:58:10;;;;;;;8.05;2.28;;;;;;;;;;5040385;28;20048;-79
2023/07/14 06:00:38;;;;;;;7.10;3.25;;;;;;;;;;5037771;28;20063;-76
2023/07/14 06:03:05;;;;;;;6.80;3.22;;;;;;;;;;5037505;28;20025;-79
2023/07/14 06:05:31;;;;;;;9.23;3.08;;;;;;;;;;5039326;28;20029;-78
2023/07/14 06:07:57;;;;;;;4.50;2.17;;;;;;;;;;5038971;28;20029;-80
2023/07/14 06:10:23;;;;;;;8.77;3.50;;;;;;;;;;5041102;28;20545;-78
2023/07/14 06:12:49;;;;;;;7.10;2.97;;;;;;;;;;5036006;28;20069;-80
2023/07/14 06:15:17;;;;;;;7.63;4.22;;;;;;;;;;5039032;28;20482;-79
2023/07/14 06:17:45;;;;;;;10.70;3.05;;;;;;;;;;5036163;28;20082;-80
2023/07/14 06:20:13;;;;;;;5.15;2.25;;;;;;;;;;5038442;28;20037;-77
2023/07/14 06:22:40;;;;;;;5.38;2.47;;;;;;;;;;5037649;28;20045;-79
2023/07/14 06:25:06;;;;;;;7.97;2.40;;;;;;;;;;5038249;28;20051;-77
2023/07/14 06:27:34;;;;;;;5.05;2.53;;;;;;;;;;5036003;28;20558;-80
2023/07/14 06:30:00;;;;;;;8.02;2.60;;;;;;;;;;5038504;28;20434;-78
2023/07/14 06:32:26;;;;;;;5.97;2.30;;;;;;;;;;5040538;28;20083;-80
2023/07/14 06:34:56;;;;;;;7.03;2.05;;;;;;;;;;5034253;28;20087;-80
2023/07/14 06:37:24;;;;;;;7.45;2.42;;;;;;;;;;5038254;28;20039;-78
2023/07/14 06:39:52;;;;;;;9.63;1.80;;;;;;;;;;5036408;28;20036;-81
2023/07/14 06:42:18;;;;;;;9.70;2.75;;;;;;;;;;5038253;28;20043;-79
2023/07/14 06:44:46;;;;;;;5.55;1.90;;;;;;;;;;5037865;28;20033;-80
2023/07/14 06:47:14;;;;;;;5.38;2.38;;;;;;;;;;5036503;28;20033;-79
2023/07/14 06:49:40;;;;;;;5.97;3.40;;;;;;;;;;5041444;28;20026;-78
2023/07/14 06:52:07;;;;;;;4.57;1.88;;;;;;;;;;5032615;28;20033;-81
2023/07/14 06:54:33;;;;;;;5.57;2.08;;;;;;;;;;5036565;28;20033;-79
2023/07/14 06:56:59;;;;;;;4.90;2.05;;;;;;;;;;5036527;28;20029;-77
2023/07/14 06:59:27;;;;;;;4.53;1.90;;;;;;;;;;5037403;28;20029;-80
2023/07/14 07:01:55;;;;;;;5.88;2.05;;;;;;;;;;5038320;28;20445;-78
2023/07/14 07:04:21;;;;;;;4.82;2.15;;;;;;;;;;5040549;28;20032;-78
2023/07/14 07:06:47;;;;;;;8.63;2.95;;;;;;;;;;5036874;28;20098;-78
2023/07/14 07:09:13;;;;;;;6.82;2.90;;;;;;;;;;5031963;28;20037;-77
2023/07/14 07:11:41;;;;;;;7.45;3.22;;;;;;;;;;5033951;28;20036;-78
2023/07/14 07:14:08;;;;;;;11.38;2.22;;;;;;;;;;5035446;28;20033;-77
2023/07/14 07:16:36;;;;;;;10.02;3.53;;;;;;;;;;5054002;28;20097;-78
2023/07/14 07:19:05;;;;;;;6.65;2.78;;;;;;;;;;5035803;28;20029;-78
2023/07/14 07:21:31;;;;;;;5.10;2.20;;;;;;;;;;5038089;28;20116;-78
2023/07/14 07:23:57;;;;;;;4.68;2.00;;;;;;;;;;5042351;28;20564;-77
2023/07/14 07:26:22;;;;;;;5.25;1.98;;;;;;;;;;5034852;28;20037;-78
2023/07/14 07:28:48;;;;;;;4.85;2.05;;;;;;;;;;5043022;28;20044;-78
2023/07/14 07:31:14;;;;;;;4.63;2.03;;;;;;;;;;5034930;28;20159;-75
2023/07/14 07:33:42;;;;;;;5.65;2.28;;;;;;;;;;5036226;28;20190;-77
2023/07/14 07:36:17;;;;;;;4.13;1.52;;;;;;;;;;5035854;28;20695;-77
2023/07/14 07:38:45;;;;;;;4.38;1.88;;;;;;;;;;5036700;28;20088;-78
2023/07/14 07:41:12;;;;;;;4.00;1.60;;;;;;;;;;5041010;28;20040;-77
2023/07/14 07:43:38;;;;;;;3.47;2.10;;;;;;;;;;5033735;28;20056;-79
2023/07/14 07:46:06;;;;;;;5.43;1.98;;;;;;;;;;5034586;28;20060;-79
2023/07/14 07:48:32;;;;;;;5.25;2.05;;;;;;;;;;5033434;28;20469;-79
2023/07/14 07:50:58;;;;;;;7.93;2.05;;;;;;;;;;5036986;28;20056;-78
2023/07/14 07:53:24;;;;;;;6.88;2.38;;;;;;;;;;5043759;28;20069;-79
2023/07/14 07:55:55;;;;;;;8.40;2.65;;;;;;;;;;5036634;28;20492;-77
2023/07/14 07:58:24;;;;;;;7.40;2.25;;;;;;;;;;5033781;28;20041;-79
2023/07/14 08:00:51;;;;;;;11.80;3.08;;;;;;;;;;5036530;28;20029;-78
2023/07/14 08:03:19;;;;;;;3.20;2.10;;;;;;;;;;5042048;28;20025;-79
2023/07/14 08:05:48;;;;;;;6.97;2.25;;;;;;;;;;5041594;28;20052;-79
2023/07/14 08:08:14;;;;;;;5.78;1.70;;;;;;;;;;5037027;28;20033;-78
2023/07/14 08:10:42;;;;;;;4.18;1.70;;;;;;;;;;5038290;28;20033;-78
2023/07/14 08:13:10;;;;;;;5.85;2.60;;;;;;;;;;5030375;28;20437;-78
2023/07/14 08:15:37;;;;;;;10.30;3.08;;;;;;;;;;5033506;28;20114;-78
2023/07/14 08:18:07;;;;;;;7.22;2.03;;;;;;;;;;5042086;28;20386;-78
2023/07/14 08:20:33;;;;;;;8.45;3.38;;;;;;;;;;5035226;28;20106;-78
2023/07/14 08:23:03;;;;;;;4.40;2.20;;;;;;;;;;5034952;28;20026;-78
2023/07/14 08:25:29;;;;;;;5.88;2.00;;;;;;;;;;5034307;28;20064;-78
2023/07/14 08:27:57;;;;;;;6.47;2.17;;;;;;;;;;5035067;28;20056;-78
2023/07/14 08:30:23;;;;;;;5.65;1.80;;;;;;;;;;5035237;28;20091;-77
2023/07/14 08:32:49;;;;;;;3.42;1.48;;;;;;;;;;5031234;28;20826;-77
2023/07/14 08:35:19;;;;;;;2.70;1.42;;;;;;;;;;5035561;28;20456;-79
2023/07/14 08:37:46;;;;;;;5.30;1.70;;;;;;;;;;5034006;28;20029;-79
2023/07/14 08:40:13;;;;;;;6.13;1.35;;;;;;;;;;5033933;28;20030;-78
2023/07/14 08:42:42;;;;;;;6.40;1.55;;;;;;;;;;5034845;28;20029;-78
2023/07/14 08:45:14;;;;;;;4.57;1.42;;;;;;;;;;5033984;28;20031;-78
2023/07/14 08:47:46;;;;;;;4.18;1.52;;;;;;;;;;5033084;28;20037;-78
2023/07/14 08:50:12;;;;;;;;;;;;;;;;;;5033645;28;20037;-78
2023/07/14 08:52:39;;;;;;;3.80;2.03;;;;;;;;;;5036876;28;19917;-79
2023/07/14 08:55:05;;;;;;;3.35;1.30;;;;;;;;;;5031183;28;20029;-78
2023/07/14 08:57:36;;;;;;;6.78;2.08;;;;;;;;;;5033256;28;20032;-79
2023/07/14 09:00:04;;;;;;;3.70;1.50;;;;;;;;;;5031877;28;20088;-78
2023/07/14 09:02:29;;;;;;;3.33;1.63;;;;;;;;;;5032322;28;20898;-77
2023/07/14 09:05:17;;;;;;;3.65;1.42;;;;;;;;;;5032762;28;20064;-78
2023/07/14 09:07:46;;;;;;;3.03;1.58;;;;;;;;;;5033738;28;20032;-77
2023/07/14 09:10:12;;;;;;;6.43;1.90;;;;;;;;;;5040176;28;20376;-77
2023/07/14 09:13:06;;;;;;;4.15;1.30;;;;;;;;;;5033103;28;20076;-79
2023/07/14 09:15:32;;;;;;;5.07;1.40;;;;;;;;;;5040329;28;20399;-79
2023/07/14 09:17:58;;;;;;;7.72;1.88;;;;;;;;;;5040011;28;20132;-77
2023/07/14 09:20:43;;;;;;;7.28;1.50;;;;;;;;;;5032768;28;20062;-76
2023/07/14 09:23:17;;;;;;;5.30;1.83;;;;;;;;;;5033235;28;20564;-79
2023/07/14 09:25:54;;;;;;;6.53;1.70;;;;;;;;;;5033622;28;20094;-78
2023/07/14 09:28:33;;;;;;;6.50;1.65;;;;;;;;;;5042909;28;20116;-77
2023/07/14 09:31:00;;;;;;;7.25;2.30;;;;;;;;;;5035344;28;20057;-77
2023/07/14 09:33:28;;;;;;;6.18;1.92;;;;;;;;;;5044367;28;20091;-78
2023/07/14 09:35:56;;;;;;;12.80;3.67;;;;;;;;;;5039334;28;20315;-78
2023/07/14 09:38:25;;;;;;;6.20;2.63;;;;;;;;;;5037311;28;20370;-78
2023/07/14 09:40:56;;;;;;;12.43;2.15;;;;;;;;;;5038496;28;20028;-78
2023/07/14 09:43:22;;;;;;;9.05;1.90;;;;;;;;;;5037881;28;20047;-79
2023/07/14 09:45:53;;;;;;;6.15;1.23;;;;;;;;;;5036434;28;20029;-77
2023/07/14 09:48:21;;;;;;;7.90;1.90;;;;;;;;;;5034835;28;20126;-81
2023/07/14 09:51:05;;;;;;;6.05;2.78;;;;;;;;;;5034192;28;20276;-77
2023/07/14 09:53:35;;;;;;;9.18;2.35;;;;;;;;;;5036130;28;20047;-79
2023/07/14 09:56:06;;;;;;;3.88;1.58;;;;;;;;;;5037019;28;20040;-78
2023/07/14 09:58:33;;;;;;;4.82;1.98;;;;;;;;;;5036662;28;20072;-78
2023/07/14 10:01:13;;;;;;;5.47;1.52;;;;;;;;;;5043403;28;20025;-78
2023/07/14 10:03:47;;;;;;;6.28;1.70;;;;;;;;;;5035828;28;20063;-79
2023/07/14 10:06:31;;;;;;;7.15;1.90;;;;;;;;;;5043036;28;20503;-79
2023/07/14 10:08:59;;;;;;;5.18;2.00;;;;;;;;;;5037364;28;20116;-78
2023/07/14 10:11:25;;;;;;;3.95;1.48;;;;;;;;;;5038424;28;20032;-79
2023/07/14 10:13:59;;;;;;;7.63;1.83;;;;;;;;;;5036328;28;20033;-79
2023/07/14 10:16:26;;;;;;;6.72;1.85;;;;;;;;;;5038692;28;20112;-79
2023/07/14 10:18:57;;;;;;;3.75;1.30;;;;;;;;;;5036579;28;20132;-78
2023/07/14 10:21:30;;;;;;;3.60;1.40;;;;;;;;;;5037034;28;20021;-79
2023/07/14 10:23:57;;;;;;;3.97;1.90;;;;;;;;;;5036588;28;20539;-77
2023/07/14 10:26:34;;;;;;;7.40;1.77;;;;;;;;;;5037866;28;20063;-79
2023/07/14 10:29:02;;;;;;;4.13;1.48;;;;;;;;;;5037621;28;20032;-78
2023/07/14 10:31:34;;;;;;;6.55;1.38;;;;;;;;;;5037994;28;20082;-77
2023/07/14 10:34:02;;;;;;;4.80;1.80;;;;;;;;;;5037125;28;20048;-78
2023/07/14 10:36:32;;;;;;;5.50;1.50;;;;;;;;;;5037074;28;20037;-79
2023/07/14 10:39:00;;;;;;;4.40;1.83;;;;;;;;;;5033683;28;20076;-78
2023/07/14 10:41:28;;;;;;;5.43;1.50;;;;;;;;;;5036662;28;20021;-80
2023/07/14 10:43:56;;;;;;;4.70;1.58;;;;;;;;;;5034665;28;20112;-82
2023/07/14 10:46:24;;;;;;;5.88;1.63;;;;;;;;;;5037121;28;20032;-79
2023/07/14 10:48:58;;;;;;;3.42;1.55;;;;;;;;;;5036952;28;20030;-80
2023/07/14 10:51:29;;;;;;;8.48;1.80;;;;;;;;;;5033657;28;20041;-80
2023/07/14 10:54:24;;;;;;;4.18;1.67;;;;;;;;;;5044529;28;20440;-77
2023/07/14 10:57:00;;;;;;;3.13;1.63;;;;;;;;;;5021773;28;20045;-77
2023/07/14 10:59:29;;;;;;;2.60;1.52;;;;;;;;;;5040983;28;20456;-78
2023/07/14 11:02:25;;;;;;;5.50;1.70;;;;;;;;;;5038654;28;20033;-78
2023/07/14 11:04:57;;;;;;;6.82;2.10;;;;;;;;;;5016809;28;20482;-77
2023/07/14 11:07:29;;;;;;;7.70;1.65;;;;;;;;;;5035455;28;20021;-78
2023/07/14 11:09:55;;;;;;;3.13;1.20;;;;;;;;;;5076582;22;20056;-81
2023/07/14 11:12:36;;;;;;;4.72;1.50;;;;;;;;;;5015442;28;20030;-78
2023/07/14 11:15:05;;;;;;;5.22;1.33;;;;;;;;;;5015626;28;20033;-78
2023/07/14 11:17:34;;;;;;;4.57;1.23;;;;;;;;;;5013414;28;20041;-78
2023/07/14 11:20:16;;;;;;;2.85;1.30;;;;;;;;;;5013912;28;20065;-77
2023/07/14 11:22:55;;;;;;;4.65;1.70;;;;;;;;;;5015229;28;20075;-76
2023/07/14 11:25:21;;;;;;;4.50;1.73;;;;;;;;;;4996559;28;20095;-78
2023/07/14 11:28:06;;;;;;;3.13;1.63;;;;;;;;;;5010046;28;21669;-79
2023/07/14 11:30:40;;;;;;;4.80;1.60;;;;;;;;;;5013926;28;20049;-79
2023/07/14 11:33:08;;;;;;;6.95;1.88;;;;;;;;;;5016737;28;20037;-78
2023/07/14 11:35:36;;;;;;;3.75;2.00;;;;;;;;;;5005890;28;20068;-78
2023/07/14 11:38:27;;;;;;;5.10;2.10;;;;;;;;;;5022719;28;20026;-79
2023/07/14 11:40:54;;;;;;;7.97;2.15;;;;;;;;;;5021964;28;21642;-78
2023/07/14 11:43:21;;;;;;;5.15;1.90;;;;;;;;;;5004467;28;20018;-78
2023/07/14 11:46:14;;;;;;;10.55;2.10;;;;;;;;;;5021091;28;20084;-79
2023/07/14 11:48:46;;;;;;;5.13;2.28;;;;;;;;;;5002137;28;20045;-78
2023/07/14 11:51:14;;;;;;;5.43;2.50;;;;;;;;;;5005470;28;20033;-78
2023/07/14 11:54:00;;;;;;;3.92;2.08;;;;;;;;;;5014206;28;20096;-77
2023/07/14 11:56:26;;;;;;;6.82;2.42;;;;;;;;;;5005314;28;20042;-78
2023/07/14 11:59:05;;;;;;;3.95;1.63;;;;;;;;;;5014463;28;20040;-77
2023/07/14 12:01:31;;;;;;;5.55;1.92;;;;;;;;;;5012932;28;20030;-78
2023/07/14 12:04:16;;;;;;;4.78;2.15;;;;;;;;;;5006458;28;20037;-79
2023/07/14 12:06:47;;;;;;;3.03;1.90;;;;;;;;;;5006953;28;20025;-79
2023/07/14 12:09:16;;;;;;;5.20;2.00;;;;;;;;;;5011192;28;20068;-78
2023/07/14 12:11:44;;;;;;;3.67;1.80;;;;;;;;;;5012468;28;20474;-78
2023/07/14 12:14:37;;;;;;;4.43;1.77;;;;;;;;;;5012799;28;21059;-79
2023/07/14 12:17:04;;;;;;;8.27;2.17;;;;;;;;;;4994729;28;20042;-77
2023/07/14 12:19:34;;;;;;;4.95;1.80;;;;;;;;;;5012412;28;20095;-78
2023/07/14 12:22:05;;;;;;;8.35;1.90;;;;;;;;;;5006053;28;20390;-77
2023/07/14 12:24:38;;;;;;;4.40;1.77;;;;;;;;;;5021684;28;20037;-78
2023/07/14 12:27:13;;;;;;;2.63;1.50;;;;;;;;;;5022728;28;20653;-79
2023/07/14 12:29:40;;;;;;;5.65;2.35;;;;;;;;;;5006764;28;20038;-78
2023/07/14 12:32:15;;;;;;;5.15;2.00;;;;;;;;;;5006544;28;20109;-77
2023/07/14 12:34:44;;;;;;;4.10;1.60;;;;;;;;;;5010365;28;20045;-78
2023/07/14 12:37:21;;;;;;;5.60;1.70;;;;;;;;;;5012276;28;20040;-79
2023/07/14 12:39:48;;;;;;;3.80;1.83;;;;;;;;;;5004377;28;20160;-78
2023/07/14 12:42:15;;;;;;;5.80;2.20;;;;;;;;;;5012497;28;20033;-79
2023/07/14 12:44:43;;;;;;;5.82;2.60;;;;;;;;;;5020434;28;20442;-79
2023/07/14 12:47:14;;;;;;;4.15;2.25;;;;;;;;;;5012607;28;20034;-79
2023/07/14 12:49:42;;;;;;;4.30;2.08;;;;;;;;;;5006038;28;20030;-79
2023/07/14 12:52:28;;;;;;;4.63;2.05;;;;;;;;;;5011358;28;21522;-78
2023/07/14 12:54:58;;;;;;;6.38;2.03;;;;;;;;;;5022108;28;20458;-79
2023/07/14 12:57:24;;;;;;;4.57;1.85;;;;;;;;;;5014976;28;20125;-79
2023/07/14 12:59:51;;;;;;;5.65;1.88;;;;;;;;;;5006566;28;20060;-78
2023/07/14 13:02:17;;;;;;;4.13;1.90;;;;;;;;;;5022119;28;20026;-78
2023/07/14 13:04:46;;;;;;;4.90;1.63;;;;;;;;;;5007795;28;20053;-78
2023/07/14 13:07:11;;;;;;;4.20;1.55;;;;;;;;;;5010815;28;21692;-78
2023/07/14 13:09:38;;;;;;;3.30;1.65;;;;;;;;;;4999548;28;20117;-79
2023/07/14 13:12:04;;;;;;;7.18;1.80;;;;;;;;;;5012076;28;20366;-78
2023/07/14 13:14:40;;;;;;;4.70;2.00;;;;;;;;;;5007998;28;20111;-77
2023/07/14 13:17:09;;;;;;;5.10;1.75;;;;;;;;;;5010284;28;20051;-77
2023/07/14 13:19:39;;;;;;;3.88;1.63;;;;;;;;;;5024265;28;20030;-79
2023/07/14 13:22:05;;;;;;;5.43;1.50;;;;;;;;;;5017248;28;20034;-79
2023/07/14 13:24:33;;;;;;;2.88;1.30;;;;;;;;;;5015910;28;20124;-79
2023/07/14 13:27:00;;;;;;;2.90;1.13;;;;;;;;;;5016726;28;20026;-79
2023/07/14 13:29:34;;;;;;;5.07;1.70;;;;;;;;;;5024254;28;20066;-78
2023/07/14 13:32:02;;;;;;;3.08;1.23;;;;;;;;;;5012172;28;20026;-78
2023/07/14 13:34:29;;;;;;;5.05;1.30;;;;;;;;;;5018300;28;20388;-77
2023/07/14 13:36:55;;;;;;;9.25;1.80;;;;;;;;;;5028336;28;20038;-81
2023/07/14 13:39:27;;;;;;;5.35;1.63;;;;;;;;;;5025312;28;20084;-79
2023/07/14 13:41:53;;;;;;;;;;;;;;;;;;5010275;28;20026;-78
2023/07/14 13:44:31;;;;;;;3.42;1.33;;;;;;;;;;5021595;28;19916;-79
2023/07/14 13:47:01;;;;;;;5.90;1.88;;;;;;;;;;5016483;28;20056;-78
2023/07/14 13:49:27;;;;;;;5.60;1.73;;;;;;;;;;5015348;28;20034;-78
2023/07/14 13:51:53;;;;;;;3.75;1.65;;;;;;;;;;5016421;28;20034;-77
2023/07/14 13:54:19;;;;;;;3.72;1.90;;;;;;;;;;5007785;28;20039;-77
2023/07/14 13:56:46;;;;;;;5.25;1.90;;;;;;;;;;5006077;28;20033;-78
2023/07/14 13:59:17;;;;;;;8.68;1.88;;;;;;;;;;5016966;28;20052;-79
2023/07/14 14:01:43;;;;;;;6.20;1.80;;;;;;;;;;5008627;28;20036;-79
2023/07/14 14:04:12;;;;;;;2.78;1.42;;;;;;;;;;5015393;28;20034;-78
2023/07/14 14:06:38;;;;;;;9.57;1.70;;;;;;;;;;5015593;28;20029;-80
2023/07/14 14:09:11;;;;;;;6.68;1.60;;;;;;;;;;5008270;28;20041;-80
2023/07/14 14:11:37;;;;;;;7.55;1.98;;;;;;;;;;5009041;28;20103;-77
2023/07/14 14:14:03;;;;;;;3.92;1.30;;;;;;;;;;5015696;28;20545;-79
2023/07/14 14:16:34;;;;;;;4.10;1.55;;;;;;;;;;5025100;28;20030;-78
2023/07/14 14:19:00;;;;;;;3.83;1.20;;;;;;;;;;5010444;28;20030;-77
2023/07/14 14:21:27;;;;;;;7.20;1.65;;;;;;;;;;5008318;28;20049;-78
2023/07/14 14:23:55;;;;;;;4.70;1.80;;;;;;;;;;5014579;28;20057;-78
2023/07/14 14:26:24;;;;;;;7.10;1.90;;;;;;;;;;5007154;28;20033;-77
2023/07/14 14:28:50;;;;;;;3.53;1.35;;;;;;;;;;5008706;28;20034;-78
2023/07/14 14:31:18;;;;;;;6.22;1.30;;;;;;;;;;5008965;28;20034;-77
2023/07/14 14:33:45;;;;;;;3.55;1.23;;;;;;;;;;5008357;28;20026;-78
2023/07/14 14:36:11;;;;;;;3.80;1.65;;;;;;;;;;4999358;28;20485;-77
2023/07/14 14:38:39;;;;;;;5.78;1.50;;;;;;;;;;5016924;28;20033;-78
2023/07/14 14:41:07;;;;;;;2.50;1.50;;;;;;;;;;5008515;28;20583;-78
2023/07/14 14:43:34;;;;;;;2.83;1.50;;;;;;;;;;5011539;28;20026;-78
2023/07/14 14:46:00;;;;;;;4.32;1.55;;;;;;;;;;5022809;28;20544;-78
2023/07/14 14:48:26;;;;;;;5.05;1.65;;;;;;;;;;5007036;28;20029;-77
2023/07/14 14:50:55;;;;;;;4.82;1.20;;;;;;;;;;5007930;28;20084;-78
2023/07/14 14:53:23;;;;;;;6.95;1.88;;;;;;;;;;4997858;28;20068;-78